Time;durP1;ratioP1;P1;durP2;ratioP2;P2;SDS_P1;SDS_P2;PMS_P1;PMS_P2;Temp;Humidity;BMP_temperature;BMP_pressure;BME280_temperature;BME280_humidity;BME280_pressure;Samples;Min_cycle;Max_cycle;Signal;HPM_P1;HPM_P2
2023/09/25 00:01:17;;;;;;;8.02;3.97;;;;;;;;;;5012287;28;20026;-74
2023/09/25 00:03:43;;;;;;;7.43;3.58;;;;;;;;;;5016507;28;20527;-74
2023/09/25 00:06:09;;;;;;;9.02;3.83;;;;;;;;;;5013322;28;20026;-74
2023/09/25 00:08:35;;;;;;;10.90;3.95;;;;;;;;;;5014009;28;20111;-74
2023/09/25 00:11:03;;;;;;;6.90;3.40;;;;;;;;;;5013926;28;20398;-74
2023/09/25 00:13:29;;;;;;;9.88;3.63;;;;;;;;;;5013708;28;20485;-76
2023/09/25 00:15:55;;;;;;;7.07;3.80;;;;;;;;;;5013635;28;20523;-75
2023/09/25 00:18:21;;;;;;;7.63;3.42;;;;;;;;;;5013800;28;20025;-75
2023/09/25 00:20:47;;;;;;;7.55;3.70;;;;;;;;;;5013686;28;20381;-75
2023/09/25 00:23:13;;;;;;;8.90;3.83;;;;;;;;;;5013474;28;20026;-75
2023/09/25 00:25:39;;;;;;;5.55;3.60;;;;;;;;;;5013308;28;20067;-74
2023/09/25 00:28:05;;;;;;;7.43;3.95;;;;;;;;;;5013398;28;20477;-75
2023/09/25 00:30:31;;;;;;;10.20;3.72;;;;;;;;;;5013365;28;20115;-73
2023/09/25 00:32:57;;;;;;;9.35;3.40;;;;;;;;;;5013161;28;20516;-74
2023/09/25 00:35:23;;;;;;;6.07;3.78;;;;;;;;;;5011950;28;20125;-74
2023/09/25 00:37:49;;;;;;;10.90;3.88;;;;;;;;;;5013256;28;20030;-74
2023/09/25 00:40:18;;;;;;;10.23;3.70;;;;;;;;;;5013313;28;20483;-75
2023/09/25 00:42:49;;;;;;;6.30;3.85;;;;;;;;;;5013054;28;20055;-75
2023/09/25 00:45:15;;;;;;;12.38;3.95;;;;;;;;;;5012906;28;20026;-74
2023/09/25 00:47:42;;;;;;;8.65;3.60;;;;;;;;;;5013321;28;20025;-75
2023/09/25 00:50:08;;;;;;;9.40;4.22;;;;;;;;;;5013148;28;20060;-73
2023/09/25 00:52:34;;;;;;;7.10;3.90;;;;;;;;;;5013166;28;20030;-74
2023/09/25 00:55:02;;;;;;;7.70;3.90;;;;;;;;;;5012609;28;20181;-74
2023/09/25 00:57:28;;;;;;;6.43;4.15;;;;;;;;;;5012893;28;20046;-76
2023/09/25 00:59:54;;;;;;;4.18;3.20;;;;;;;;;;5012916;28;20038;-74
2023/09/25 01:02:20;;;;;;;6.97;3.70;;;;;;;;;;5013008;28;20392;-76
2023/09/25 01:04:48;;;;;;;8.68;4.05;;;;;;;;;;5012232;28;20076;-74
2023/09/25 01:07:16;;;;;;;8.23;3.95;;;;;;;;;;5012523;28;20538;-75
2023/09/25 01:09:42;;;;;;;12.23;3.80;;;;;;;;;;5012608;28;20025;-74
2023/09/25 01:12:08;;;;;;;9.68;3.80;;;;;;;;;;5013243;28;20524;-75
2023/09/25 01:14:34;;;;;;;6.75;3.97;;;;;;;;;;5012969;28;20219;-75
2023/09/25 01:17:01;;;;;;;7.93;4.20;;;;;;;;;;5012441;28;20026;-75
2023/09/25 01:19:27;;;;;;;7.78;4.43;;;;;;;;;;5012555;28;20029;-75
2023/09/25 01:21:53;;;;;;;8.32;3.78;;;;;;;;;;5013062;28;20369;-75
2023/09/25 01:24:19;;;;;;;8.25;3.83;;;;;;;;;;5012346;28;20104;-74
2023/09/25 01:26:45;;;;;;;7.35;3.90;;;;;;;;;;5012328;28;20029;-74
2023/09/25 01:29:12;;;;;;;7.63;3.85;;;;;;;;;;5012356;28;20029;-75
2023/09/25 01:31:38;;;;;;;8.80;3.90;;;;;;;;;;5012285;28;20068;-75
2023/09/25 01:34:04;;;;;;;7.82;3.83;;;;;;;;;;5012050;28;20034;-76
2023/09/25 01:36:30;;;;;;;4.63;3.55;;;;;;;;;;5012037;28;20503;-74
2023/09/25 01:38:56;;;;;;;7.35;3.50;;;;;;;;;;5012159;28;20030;-75
2023/09/25 01:41:22;;;;;;;9.70;4.03;;;;;;;;;;5012110;28;20059;-75
2023/09/25 01:43:48;;;;;;;10.07;3.92;;;;;;;;;;5012055;28;20022;-75
2023/09/25 01:46:14;;;;;;;10.82;3.25;;;;;;;;;;5011995;28;20032;-74
2023/09/25 01:48:40;;;;;;;9.25;3.75;;;;;;;;;;5011550;28;20038;-74
2023/09/25 01:51:12;;;;;;;9.48;3.85;;;;;;;;;;5012153;28;20029;-74
2023/09/25 01:53:38;;;;;;;7.57;4.07;;;;;;;;;;5011790;28;20484;-74
2023/09/25 01:56:14;;;;;;;9.75;3.60;;;;;;;;;;5011752;28;20432;-73
2023/09/25 01:58:41;;;;;;;5.57;3.60;;;;;;;;;;5012046;28;20026;-73
2023/09/25 02:01:07;;;;;;;8.73;3.88;;;;;;;;;;5011964;28;20544;-73
2023/09/25 02:03:33;;;;;;;11.43;3.67;;;;;;;;;;5011845;28;20022;-73
2023/09/25 02:05:59;;;;;;;6.72;3.60;;;;;;;;;;5011637;28;20044;-73
2023/09/25 02:08:25;;;;;;;10.93;3.78;;;;;;;;;;5012223;28;20472;-73
2023/09/25 02:10:51;;;;;;;7.70;3.92;;;;;;;;;;5011852;28;20028;-73
2023/09/25 02:13:17;;;;;;;9.40;3.80;;;;;;;;;;5011684;28;20378;-73
2023/09/25 02:15:43;;;;;;;9.48;4.20;;;;;;;;;;5012537;28;20061;-73
2023/09/25 02:18:09;;;;;;;6.82;4.20;;;;;;;;;;5015904;28;20053;-74
2023/09/25 02:20:35;;;;;;;8.80;4.20;;;;;;;;;;5015836;28;20050;-74
2023/09/25 02:23:01;;;;;;;9.02;3.80;;;;;;;;;;5015676;28;20121;-74
2023/09/25 02:25:27;;;;;;;8.05;4.03;;;;;;;;;;5015531;28;20716;-72
2023/09/25 02:27:54;;;;;;;9.45;3.90;;;;;;;;;;5015627;28;20294;-73
2023/09/25 02:30:20;;;;;;;6.72;3.80;;;;;;;;;;5015593;28;20034;-73
2023/09/25 02:32:47;;;;;;;6.65;3.95;;;;;;;;;;5015525;28;20395;-74
2023/09/25 02:35:13;;;;;;;10.13;3.72;;;;;;;;;;5015464;28;20476;-73
2023/09/25 02:37:40;;;;;;;7.35;3.90;;;;;;;;;;5015625;28;20069;-73
2023/09/25 02:40:07;;;;;;;9.48;4.10;;;;;;;;;;5015458;28;20033;-73
2023/09/25 02:42:33;;;;;;;6.07;3.97;;;;;;;;;;5015515;28;20088;-75
2023/09/25 02:44:59;;;;;;;12.35;5.35;;;;;;;;;;5023408;28;20018;-75
2023/09/25 02:47:26;;;;;;;7.07;4.00;;;;;;;;;;5015471;28;20083;-74
2023/09/25 02:49:52;;;;;;;12.35;4.50;;;;;;;;;;5027459;28;20356;-74
2023/09/25 02:52:17;;;;;;;8.23;4.20;;;;;;;;;;5034988;28;20025;-74
2023/09/25 02:54:43;;;;;;;10.93;4.88;;;;;;;;;;5032569;28;20034;-74
2023/09/25 02:57:09;;;;;;;8.48;4.05;;;;;;;;;;5034554;28;20033;-74
2023/09/25 02:59:35;;;;;;;7.65;4.18;;;;;;;;;;5033096;28;20033;-74
2023/09/25 03:02:02;;;;;;;8.38;3.85;;;;;;;;;;5034631;28;20068;-74
2023/09/25 03:04:28;;;;;;;9.07;4.32;;;;;;;;;;5034547;28;20030;-73
2023/09/25 03:06:56;;;;;;;14.15;3.80;;;;;;;;;;5033668;28;20053;-75
2023/09/25 03:09:22;;;;;;;8.52;4.13;;;;;;;;;;5034098;28;20045;-74
2023/09/25 03:11:48;;;;;;;9.23;4.05;;;;;;;;;;5034546;28;20526;-73
2023/09/25 03:14:14;;;;;;;7.28;4.05;;;;;;;;;;5034421;28;20026;-73
2023/09/25 03:16:41;;;;;;;8.27;3.92;;;;;;;;;;5034276;28;20060;-73
2023/09/25 03:19:07;;;;;;;8.65;4.68;;;;;;;;;;5034389;28;20395;-74
2023/09/25 03:21:33;;;;;;;9.82;3.97;;;;;;;;;;5034431;28;20130;-74
2023/09/25 03:23:59;;;;;;;10.80;4.10;;;;;;;;;;5034946;28;20053;-73
2023/09/25 03:26:25;;;;;;;8.13;4.20;;;;;;;;;;5032206;28;20060;-72
2023/09/25 03:28:51;;;;;;;8.45;4.53;;;;;;;;;;5034110;28;20496;-74
2023/09/25 03:31:17;;;;;;;5.97;4.05;;;;;;;;;;5033200;28;20152;-73
2023/09/25 03:33:44;;;;;;;8.98;4.28;;;;;;;;;;5033092;28;20408;-73
2023/09/25 03:36:11;;;;;;;15.65;4.50;;;;;;;;;;5033028;28;20027;-72
2023/09/25 03:38:37;;;;;;;8.82;4.15;;;;;;;;;;5033339;28;20063;-74
2023/09/25 03:41:04;;;;;;;10.55;4.00;;;;;;;;;;5033363;28;20097;-73
2023/09/25 03:43:30;;;;;;;11.13;4.30;;;;;;;;;;5032816;28;20037;-73
2023/09/25 03:45:56;;;;;;;8.93;4.40;;;;;;;;;;5033086;28;20037;-73
2023/09/25 03:48:22;;;;;;;10.18;4.72;;;;;;;;;;5033676;28;20044;-75
2023/09/25 03:50:48;;;;;;;18.23;5.53;;;;;;;;;;5032920;28;20306;-75
2023/09/25 03:53:14;;;;;;;11.60;6.05;;;;;;;;;;5017080;28;20744;-77
2023/09/25 03:55:40;;;;;;;12.30;6.22;;;;;;;;;;5028617;28;20104;-77
2023/09/25 03:58:06;;;;;;;8.32;4.70;;;;;;;;;;5027892;28;20014;-77
2023/09/25 04:00:32;;;;;;;8.65;4.88;;;;;;;;;;5015862;28;20033;-76
2023/09/25 04:02:58;;;;;;;11.75;4.97;;;;;;;;;;5015151;28;20362;-74
2023/09/25 04:05:24;;;;;;;11.20;4.65;;;;;;;;;;5015238;28;20026;-73
2023/09/25 04:07:50;;;;;;;7.05;4.35;;;;;;;;;;5013974;28;20073;-74
2023/09/25 04:10:17;;;;;;;13.35;5.75;;;;;;;;;;5014186;28;20042;-74
2023/09/25 04:12:43;;;;;;;7.80;4.97;;;;;;;;;;5014265;28;20549;-75
2023/09/25 04:15:13;;;;;;;11.73;6.13;;;;;;;;;;5013914;28;20061;-74
2023/09/25 04:17:39;;;;;;;15.63;6.72;;;;;;;;;;5015136;28;20022;-76
2023/09/25 04:20:17;;;;;;;11.77;6.05;;;;;;;;;;5017713;28;20108;-77
2023/09/25 04:22:44;;;;;;;10.70;6.07;;;;;;;;;;5028827;28;20476;-76
2023/09/25 04:25:18;;;;;;;11.02;6.50;;;;;;;;;;5026026;28;20022;-76
2023/09/25 04:27:44;;;;;;;12.93;6.13;;;;;;;;;;5034236;28;20056;-76
2023/09/25 04:30:14;;;;;;;9.25;5.30;;;;;;;;;;5018453;28;20068;-77
2023/09/25 04:32:40;;;;;;;7.55;5.18;;;;;;;;;;5030907;28;20489;-77
2023/09/25 04:35:07;;;;;;;12.98;4.90;;;;;;;;;;5026624;28;20114;-78
2023/09/25 04:37:33;;;;;;;9.55;4.80;;;;;;;;;;5024443;28;20362;-76
2023/09/25 04:40:00;;;;;;;9.93;4.90;;;;;;;;;;5022282;28;20021;-79
2023/09/25 04:42:26;;;;;;;11.05;5.00;;;;;;;;;;5034046;28;20036;-76
2023/09/25 04:44:52;;;;;;;16.05;5.22;;;;;;;;;;5028837;28;20029;-77
2023/09/25 04:47:18;;;;;;;6.07;4.60;;;;;;;;;;5022750;28;20030;-79
2023/09/25 04:49:43;;;;;;;11.38;5.70;;;;;;;;;;5019300;28;20030;-77
2023/09/25 04:52:09;;;;;;;11.02;5.40;;;;;;;;;;5027300;28;20064;-75
2023/09/25 04:54:37;;;;;;;11.77;4.90;;;;;;;;;;5013124;28;20513;-75
2023/09/25 04:57:03;;;;;;;7.30;5.25;;;;;;;;;;5013085;28;20129;-75
2023/09/25 04:59:29;;;;;;;13.57;5.53;;;;;;;;;;5012750;28;20029;-74
2023/09/25 05:01:55;;;;;;;11.63;5.60;;;;;;;;;;5012796;28;20030;-75
2023/09/25 05:04:21;;;;;;;10.68;5.53;;;;;;;;;;5013284;28;20022;-75
2023/09/25 05:06:47;;;;;;;9.27;5.55;;;;;;;;;;5012821;28;20072;-75
2023/09/25 05:09:13;;;;;;;11.30;5.35;;;;;;;;;;5013477;28;20034;-75
2023/09/25 05:11:39;;;;;;;14.10;5.45;;;;;;;;;;5013159;28;20029;-75
2023/09/25 05:14:05;;;;;;;13.93;5.38;;;;;;;;;;5013937;28;20460;-75
2023/09/25 05:16:31;;;;;;;11.52;5.40;;;;;;;;;;5013508;28;20556;-76
2023/09/25 05:18:59;;;;;;;8.88;5.18;;;;;;;;;;5015585;28;20034;-76
2023/09/25 05:21:25;;;;;;;10.98;5.43;;;;;;;;;;5016068;28;20014;-77
2023/09/25 05:23:51;;;;;;;7.22;4.85;;;;;;;;;;5014656;28;20018;-75
2023/09/25 05:26:17;;;;;;;9.57;5.55;;;;;;;;;;5013214;28;20395;-75
2023/09/25 05:28:43;;;;;;;8.75;5.40;;;;;;;;;;5012129;28;20507;-76
2023/09/25 05:31:09;;;;;;;12.82;5.53;;;;;;;;;;5021276;28;20087;-74
2023/09/25 05:33:35;;;;;;;9.43;4.88;;;;;;;;;;5029754;28;20038;-73
2023/09/25 05:36:01;;;;;;;11.20;5.55;;;;;;;;;;5024523;28;20429;-76
2023/09/25 05:38:27;;;;;;;9.98;6.18;;;;;;;;;;5014704;28;20100;-75
2023/09/25 05:40:53;;;;;;;12.30;5.28;;;;;;;;;;5029221;28;20026;-74
2023/09/25 05:43:20;;;;;;;11.48;5.60;;;;;;;;;;5027606;28;20107;-73
2023/09/25 05:45:47;;;;;;;14.23;5.20;;;;;;;;;;5023298;28;20025;-75
2023/09/25 05:48:13;;;;;;;12.05;5.57;;;;;;;;;;5030578;28;20013;-75
2023/09/25 05:50:39;;;;;;;15.30;5.88;;;;;;;;;;5031791;28;20528;-75
2023/09/25 05:53:05;;;;;;;12.82;6.30;;;;;;;;;;5035106;28;20060;-74
2023/09/25 05:55:31;;;;;;;12.60;6.55;;;;;;;;;;5020068;28;20026;-76
2023/09/25 05:57:57;;;;;;;12.35;5.60;;;;;;;;;;5032567;28;20060;-76
2023/09/25 06:00:23;;;;;;;11.23;5.88;;;;;;;;;;5034654;28;20046;-77
2023/09/25 06:02:49;;;;;;;12.40;5.80;;;;;;;;;;5033382;28;20053;-77
2023/09/25 06:05:15;;;;;;;14.25;5.72;;;;;;;;;;5017175;28;20049;-74
2023/09/25 06:07:42;;;;;;;11.48;5.28;;;;;;;;;;5018913;28;20029;-76
2023/09/25 06:10:08;;;;;;;8.77;5.50;;;;;;;;;;5026089;28;20022;-75
2023/09/25 06:12:35;;;;;;;11.15;5.25;;;;;;;;;;5011392;28;20133;-74
2023/09/25 06:15:05;;;;;;;13.57;5.78;;;;;;;;;;5012029;28;20030;-77
2023/09/25 06:17:31;;;;;;;16.15;6.18;;;;;;;;;;5011969;28;20030;-75
2023/09/25 06:19:57;;;;;;;15.05;5.75;;;;;;;;;;5011530;28;20033;-76
2023/09/25 06:22:23;;;;;;;11.05;5.90;;;;;;;;;;5012909;28;20030;-76
2023/09/25 06:24:50;;;;;;;13.60;6.35;;;;;;;;;;5013196;28;20102;-78
2023/09/25 06:27:16;;;;;;;11.20;6.40;;;;;;;;;;5013192;28;20089;-75
2023/09/25 06:29:45;;;;;;;25.98;7.45;;;;;;;;;;5012235;28;20460;-73
2023/09/25 06:32:11;;;;;;;15.57;7.28;;;;;;;;;;5010172;28;20026;-72
2023/09/25 06:34:39;;;;;;;16.17;5.97;;;;;;;;;;5010667;28;20448;-74
2023/09/25 06:37:05;;;;;;;12.10;5.22;;;;;;;;;;5012019;28;20527;-73
2023/09/25 06:39:31;;;;;;;16.95;7.78;;;;;;;;;;5031312;28;20029;-75
2023/09/25 06:41:57;;;;;;;9.57;5.45;;;;;;;;;;5031534;28;20384;-74
2023/09/25 06:44:23;;;;;;;10.15;4.63;;;;;;;;;;5017697;28;20030;-74
2023/09/25 06:46:49;;;;;;;14.25;6.63;;;;;;;;;;5011295;28;20389;-74
2023/09/25 06:49:17;;;;;;;16.75;6.03;;;;;;;;;;5028842;28;20103;-73
2023/09/25 06:51:43;;;;;;;11.82;5.38;;;;;;;;;;5031057;28;20500;-73
2023/09/25 06:54:09;;;;;;;13.20;5.97;;;;;;;;;;5031176;28;20125;-73
2023/09/25 06:56:35;;;;;;;16.88;6.72;;;;;;;;;;5030885;28;20087;-73
2023/09/25 06:59:02;;;;;;;14.55;5.55;;;;;;;;;;5030753;28;20109;-73
2023/09/25 07:01:28;;;;;;;13.40;5.93;;;;;;;;;;5031217;28;20127;-71
2023/09/25 07:03:54;;;;;;;12.02;4.70;;;;;;;;;;5034266;28;20498;-72
2023/09/25 07:06:20;;;;;;;13.15;5.53;;;;;;;;;;5034540;28;20100;-71
2023/09/25 07:08:46;;;;;;;16.02;7.72;;;;;;;;;;5034564;28;20446;-72
2023/09/25 07:11:12;;;;;;;17.52;7.90;;;;;;;;;;5034909;28;20122;-74
2023/09/25 07:13:38;;;;;;;17.40;6.63;;;;;;;;;;5034422;28;20130;-74
2023/09/25 07:16:05;;;;;;;16.48;6.95;;;;;;;;;;5034458;28;20443;-72
2023/09/25 07:18:31;;;;;;;11.20;4.70;;;;;;;;;;5034606;28;20060;-74
2023/09/25 07:20:57;;;;;;;13.57;4.35;;;;;;;;;;5033850;28;20037;-77
2023/09/25 07:23:23;;;;;;;15.25;3.42;;;;;;;;;;5036080;28;20025;-80
2023/09/25 07:25:49;;;;;;;11.25;3.50;;;;;;;;;;5036502;28;20518;-77
2023/09/25 07:28:15;;;;;;;12.27;4.10;;;;;;;;;;5036965;28;20029;-76
2023/09/25 07:30:44;;;;;;;12.85;3.65;;;;;;;;;;5037942;28;20029;-76
2023/09/25 07:33:12;;;;;;;6.03;3.10;;;;;;;;;;5039165;28;20404;-77
2023/09/25 07:35:38;;;;;;;15.10;7.68;;;;;;;;;;5036141;28;20022;-75
2023/09/25 07:38:04;;;;;;;6.38;2.40;;;;;;;;;;5035741;28;20033;-77
2023/09/25 07:40:30;;;;;;;7.97;2.40;;;;;;;;;;5036117;28;20021;-77
2023/09/25 07:42:57;;;;;;;8.68;2.65;;;;;;;;;;5036039;28;20025;-78
2023/09/25 07:45:25;;;;;;;7.13;2.22;;;;;;;;;;5034780;28;20022;-77
2023/09/25 07:47:54;;;;;;;4.38;2.17;;;;;;;;;;5035772;28;20049;-75
2023/09/25 07:50:24;;;;;;;4.30;1.83;;;;;;;;;;5034091;28;20104;-76
2023/09/25 07:52:54;;;;;;;11.00;2.72;;;;;;;;;;5033454;28;20037;-76
2023/09/25 07:55:20;;;;;;;4.65;2.15;;;;;;;;;;5033666;28;20037;-75
2023/09/25 07:57:46;;;;;;;7.32;2.40;;;;;;;;;;5033804;28;20033;-76
2023/09/25 08:00:23;;;;;;;12.85;2.40;;;;;;;;;;5034065;28;20410;-74
2023/09/25 08:02:52;;;;;;;4.97;2.50;;;;;;;;;;5033616;28;20018;-73
2023/09/25 08:05:19;;;;;;;6.30;2.05;;;;;;;;;;5034150;28;20834;-73
2023/09/25 08:07:49;;;;;;;3.63;1.80;;;;;;;;;;5033770;28;20021;-72
2023/09/25 08:10:15;;;;;;;13.73;2.70;;;;;;;;;;5033789;28;20040;-74
2023/09/25 08:12:42;;;;;;;9.07;2.28;;;;;;;;;;5022498;28;20026;-73
2023/09/25 08:15:08;;;;;;;4.97;1.92;;;;;;;;;;5013588;28;20030;-72
2023/09/25 08:17:34;;;;;;;4.90;1.85;;;;;;;;;;5014918;28;20497;-76
2023/09/25 08:20:00;;;;;;;5.90;2.10;;;;;;;;;;5014503;28;20065;-73
2023/09/25 08:22:26;;;;;;;5.30;1.90;;;;;;;;;;5013676;28;20018;-73
2023/09/25 08:24:53;;;;;;;4.63;2.30;;;;;;;;;;5013708;28;20076;-73
2023/09/25 08:27:20;;;;;;;5.47;2.13;;;;;;;;;;5013438;28;20058;-75
2023/09/25 08:29:47;;;;;;;6.00;1.83;;;;;;;;;;5013681;28;20049;-73
2023/09/25 08:32:13;;;;;;;7.72;2.05;;;;;;;;;;5013639;28;20026;-73
2023/09/25 08:34:40;;;;;;;7.13;2.22;;;;;;;;;;5013427;28;20034;-74
2023/09/25 08:37:06;;;;;;;6.55;2.13;;;;;;;;;;5013096;28;20029;-75
2023/09/25 08:39:32;;;;;;;6.53;2.00;;;;;;;;;;5012011;28;20030;-74
2023/09/25 08:41:58;;;;;;;5.93;1.60;;;;;;;;;;5013290;28;20029;-74
2023/09/25 08:44:24;;;;;;;3.78;1.85;;;;;;;;;;5013317;28;20029;-75
2023/09/25 08:46:51;;;;;;;5.45;1.70;;;;;;;;;;5013161;28;20087;-73
2023/09/25 08:49:17;;;;;;;5.72;2.25;;;;;;;;;;5013047;28;20449;-75
2023/09/25 08:51:43;;;;;;;8.48;1.80;;;;;;;;;;5013145;28;20493;-77
2023/09/25 08:54:09;;;;;;;3.58;1.67;;;;;;;;;;5013108;28;20036;-74
2023/09/25 08:56:36;;;;;;;7.50;1.58;;;;;;;;;;5013431;28;20482;-74
2023/09/25 08:59:04;;;;;;;5.20;1.80;;;;;;;;;;5014152;28;20034;-75
2023/09/25 09:01:30;;;;;;;5.15;1.70;;;;;;;;;;5013602;28;20030;-77
2023/09/25 09:03:56;;;;;;;2.83;1.40;;;;;;;;;;5015794;28;20030;-78
2023/09/25 09:06:22;;;;;;;6.85;1.73;;;;;;;;;;5014620;28;20547;-75
2023/09/25 09:08:49;;;;;;;3.88;1.48;;;;;;;;;;5012827;28;20030;-75
2023/09/25 09:11:16;;;;;;;5.38;2.70;;;;;;;;;;5012558;28;20033;-75
2023/09/25 09:13:42;;;;;;;4.68;1.80;;;;;;;;;;5012653;28;20435;-74
2023/09/25 09:16:12;;;;;;;8.18;2.40;;;;;;;;;;5012383;28;20026;-76
2023/09/25 09:18:38;;;;;;;9.40;1.67;;;;;;;;;;5012564;28;20030;-74
2023/09/25 09:21:04;;;;;;;5.00;1.75;;;;;;;;;;5013021;28;20045;-76
2023/09/25 09:23:40;;;;;;;7.47;1.88;;;;;;;;;;5012929;28;20377;-74
2023/09/25 09:26:12;;;;;;;6.93;1.88;;;;;;;;;;5011807;28;20018;-76
2023/09/25 09:28:38;;;;;;;4.60;1.83;;;;;;;;;;5012597;28;20014;-75
2023/09/25 09:31:05;;;;;;;5.60;1.60;;;;;;;;;;5012464;28;20056;-73
2023/09/25 09:33:31;;;;;;;5.03;2.05;;;;;;;;;;5012410;28;20034;-73
2023/09/25 09:35:57;;;;;;;6.25;1.52;;;;;;;;;;5011941;28;20079;-73
2023/09/25 09:38:25;;;;;;;7.00;1.63;;;;;;;;;;5012474;28;20045;-76
2023/09/25 09:40:51;;;;;;;2.63;1.40;;;;;;;;;;5012247;28;20033;-75
2023/09/25 09:43:17;;;;;;;5.63;1.52;;;;;;;;;;5012247;28;20030;-75
2023/09/25 09:45:45;;;;;;;6.00;1.60;;;;;;;;;;5011950;28;20097;-76
2023/09/25 09:48:13;;;;;;;5.82;1.73;;;;;;;;;;5012570;28;20488;-75
2023/09/25 09:50:40;;;;;;;4.47;1.70;;;;;;;;;;5012738;28;20026;-75
2023/09/25 09:53:10;;;;;;;6.65;1.48;;;;;;;;;;5012865;28;20109;-77
2023/09/25 09:55:37;;;;;;;3.33;1.63;;;;;;;;;;5013932;28;20377;-79
2023/09/25 09:58:03;;;;;;;12.02;2.25;;;;;;;;;;5013293;28;20032;-75
2023/09/25 10:00:29;;;;;;;4.70;1.55;;;;;;;;;;5013031;28;20113;-78
2023/09/25 10:02:56;;;;;;;4.30;1.50;;;;;;;;;;5012700;28;20200;-75
2023/09/25 10:05:22;;;;;;;4.35;1.90;;;;;;;;;;5011767;28;20053;-74
2023/09/25 10:08:05;;;;;;;3.58;1.83;;;;;;;;;;5011958;28;20062;-74
2023/09/25 10:10:31;;;;;;;2.80;1.60;;;;;;;;;;5011808;28;20026;-73
2023/09/25 10:12:58;;;;;;;10.82;2.17;;;;;;;;;;5011893;28;20105;-73
2023/09/25 10:15:25;;;;;;;5.53;1.67;;;;;;;;;;5011293;28;20509;-73
2023/09/25 10:17:53;;;;;;;6.00;1.85;;;;;;;;;;5011512;28;20053;-74
2023/09/25 10:20:28;;;;;;;4.68;1.73;;;;;;;;;;5011458;28;20040;-75
2023/09/25 10:22:58;;;;;;;6.90;2.88;;;;;;;;;;5011869;28;20116;-76
2023/09/25 10:25:24;;;;;;;6.05;1.60;;;;;;;;;;5011840;28;20022;-76
2023/09/25 10:27:50;;;;;;;5.35;1.85;;;;;;;;;;5012042;28;20033;-75
2023/09/25 10:30:18;;;;;;;7.03;1.95;;;;;;;;;;5012027;28;20022;-75
2023/09/25 10:32:52;;;;;;;5.18;1.80;;;;;;;;;;5012294;28;20126;-74
2023/09/25 10:35:37;;;;;;;5.80;1.83;;;;;;;;;;5011573;28;20033;-75
2023/09/25 10:38:08;;;;;;;6.53;1.88;;;;;;;;;;5015089;28;20110;-74
2023/09/25 10:40:38;;;;;;;7.35;2.30;;;;;;;;;;5016604;28;20068;-75
2023/09/25 10:43:04;;;;;;;8.23;2.20;;;;;;;;;;5016779;28;20022;-75
2023/09/25 10:45:32;;;;;;;10.63;2.28;;;;;;;;;;5016515;28;20023;-75
2023/09/25 10:47:58;;;;;;;3.72;1.77;;;;;;;;;;5016216;28;20062;-73
2023/09/25 10:50:24;;;;;;;6.97;2.00;;;;;;;;;;5015513;28;20064;-73
2023/09/25 10:52:50;;;;;;;6.82;1.70;;;;;;;;;;5015208;28;20026;-73
2023/09/25 10:55:16;;;;;;;5.00;1.85;;;;;;;;;;5015221;28;20358;-72
2023/09/25 10:57:42;;;;;;;2.90;1.67;;;;;;;;;;5015292;28;20026;-74
2023/09/25 11:00:11;;;;;;;4.93;1.88;;;;;;;;;;5015055;28;20460;-73
2023/09/25 11:02:37;;;;;;;6.35;1.77;;;;;;;;;;5015008;28;20052;-73
2023/09/25 11:05:03;;;;;;;4.53;1.80;;;;;;;;;;5015237;28;20026;-74
2023/09/25 11:07:29;;;;;;;5.32;1.58;;;;;;;;;;5015153;28;20106;-79
2023/09/25 11:09:56;;;;;;;4.60;1.83;;;;;;;;;;5015173;28;20030;-75
2023/09/25 11:12:22;;;;;;;3.92;1.88;;;;;;;;;;5014439;28;20026;-74
2023/09/25 11:14:48;;;;;;;2.33;1.60;;;;;;;;;;5014613;28;20401;-75
2023/09/25 11:17:14;;;;;;;7.07;2.30;;;;;;;;;;5014556;28;20033;-74
2023/09/25 11:19:46;;;;;;;3.20;1.80;;;;;;;;;;5014461;28;20037;-73
2023/09/25 11:22:12;;;;;;;4.30;1.85;;;;;;;;;;5012263;28;20492;-74
2023/09/25 11:24:38;;;;;;;9.77;2.03;;;;;;;;;;5014000;28;20018;-74
2023/09/25 11:27:08;;;;;;;5.35;1.80;;;;;;;;;;5014253;28;20551;-74
2023/09/25 11:29:37;;;;;;;9.10;2.30;;;;;;;;;;5014135;28;20100;-72
2023/09/25 11:32:03;;;;;;;3.03;2.00;;;;;;;;;;5014381;28;20034;-74
2023/09/25 11:34:29;;;;;;;3.70;1.95;;;;;;;;;;5014831;28;20038;-75
2023/09/25 11:36:58;;;;;;;5.40;2.33;;;;;;;;;;5014006;28;20034;-74
2023/09/25 11:39:25;;;;;;;4.78;1.92;;;;;;;;;;5014080;28;20033;-74
2023/09/25 11:41:51;;;;;;;3.85;1.90;;;;;;;;;;5014411;28;20406;-74
2023/09/25 11:44:17;;;;;;;5.13;1.75;;;;;;;;;;5014535;28;20029;-75
2023/09/25 11:46:43;;;;;;;5.15;2.08;;;;;;;;;;5014455;28;20065;-77
2023/09/25 11:49:09;;;;;;;5.82;1.90;;;;;;;;;;5014006;28;20508;-75
2023/09/25 11:51:36;;;;;;;4.18;1.90;;;;;;;;;;5015557;28;20029;-75
2023/09/25 11:54:02;;;;;;;4.03;1.90;;;;;;;;;;5015050;28;20034;-80
2023/09/25 11:56:28;;;;;;;7.28;1.90;;;;;;;;;;5024091;28;20061;-79
2023/09/25 11:58:55;;;;;;;4.60;2.30;;;;;;;;;;5033128;28;20502;-78
2023/09/25 12:01:21;;;;;;;6.80;2.03;;;;;;;;;;5034210;28;20034;-76
2023/09/25 12:03:47;;;;;;;5.72;2.03;;;;;;;;;;5034246;28;20385;-75
2023/09/25 12:06:13;;;;;;;6.53;2.10;;;;;;;;;;5033924;28;20071;-74
2023/09/25 12:08:39;;;;;;;5.18;2.08;;;;;;;;;;5033979;28;20022;-75
2023/09/25 12:11:05;;;;;;;7.30;2.10;;;;;;;;;;5033582;28;20026;-72
2023/09/25 12:13:31;;;;;;;5.57;2.25;;;;;;;;;;5033609;28;20037;-72
2023/09/25 12:15:57;;;;;;;3.67;1.80;;;;;;;;;;5033420;28;20018;-75
2023/09/25 12:18:23;;;;;;;2.78;1.42;;;;;;;;;;5033240;28;20029;-73
2023/09/25 12:20:49;;;;;;;5.25;1.83;;;;;;;;;;5033131;28;20025;-73
2023/09/25 12:23:16;;;;;;;4.38;1.95;;;;;;;;;;5033096;28;20038;-73
2023/09/25 12:25:42;;;;;;;4.50;2.22;;;;;;;;;;5033332;28;20021;-73
2023/09/25 12:28:08;;;;;;;6.28;1.90;;;;;;;;;;5033829;28;20022;-73
2023/09/25 12:30:35;;;;;;;5.57;1.73;;;;;;;;;;5033059;28;20040;-72
2023/09/25 12:33:01;;;;;;;3.80;1.77;;;;;;;;;;5033022;28;20025;-74
2023/09/25 12:35:27;;;;;;;4.20;2.45;;;;;;;;;;5032985;28;20025;-74
2023/09/25 12:37:55;;;;;;;3.78;2.20;;;;;;;;;;5032720;28;20055;-74
2023/09/25 12:40:21;;;;;;;7.25;1.92;;;;;;;;;;5032274;28;20022;-72
2023/09/25 12:42:47;;;;;;;4.30;2.25;;;;;;;;;;5031835;28;20025;-73
2023/09/25 12:45:14;;;;;;;4.35;1.88;;;;;;;;;;5031058;28;20021;-74
2023/09/25 12:47:40;;;;;;;3.95;2.25;;;;;;;;;;5033009;28;20408;-73
2023/09/25 12:50:06;;;;;;;6.18;2.10;;;;;;;;;;5033604;28;20484;-75
2023/09/25 12:52:32;;;;;;;5.22;2.13;;;;;;;;;;5034319;28;20116;-78
2023/09/25 12:55:00;;;;;;;10.20;2.30;;;;;;;;;;5035683;28;20021;-77
2023/09/25 12:57:26;;;;;;;4.35;2.10;;;;;;;;;;5033681;28;20103;-76
2023/09/25 12:59:52;;;;;;;7.93;2.17;;;;;;;;;;5032912;28;20021;-74
2023/09/25 13:02:18;;;;;;;5.03;2.20;;;;;;;;;;5034432;28;20017;-75
2023/09/25 13:04:44;;;;;;;8.65;2.97;;;;;;;;;;5033099;28;20587;-75
2023/09/25 13:07:10;;;;;;;6.13;2.58;;;;;;;;;;5033526;28;20025;-76
2023/09/25 13:09:37;;;;;;;3.78;2.00;;;;;;;;;;5034759;28;20021;-77
2023/09/25 13:12:03;;;;;;;4.57;2.05;;;;;;;;;;5032810;28;20075;-75
2023/09/25 13:14:29;;;;;;;5.72;2.35;;;;;;;;;;5032325;28;20558;-76
2023/09/25 13:16:55;;;;;;;5.07;2.28;;;;;;;;;;5032661;28;20057;-74
2023/09/25 13:19:22;;;;;;;6.32;2.67;;;;;;;;;;5032391;28;20068;-72
2023/09/25 13:21:48;;;;;;;5.22;2.13;;;;;;;;;;5032186;28;20028;-73
2023/09/25 13:24:15;;;;;;;4.00;2.03;;;;;;;;;;5031933;28;20387;-73
2023/09/25 13:26:41;;;;;;;5.63;2.20;;;;;;;;;;5032430;28;20028;-74
2023/09/25 13:29:07;;;;;;;3.90;2.15;;;;;;;;;;5032260;28;20384;-74
2023/09/25 13:31:33;;;;;;;8.80;2.20;;;;;;;;;;5032083;28;20503;-73
2023/09/25 13:34:00;;;;;;;4.47;1.92;;;;;;;;;;5032074;28;20041;-74
2023/09/25 13:36:26;;;;;;;5.13;1.65;;;;;;;;;;5032057;28;20408;-77
2023/09/25 13:38:54;;;;;;;6.13;2.42;;;;;;;;;;5031845;28;20395;-74
2023/09/25 13:41:20;;;;;;;5.05;2.13;;;;;;;;;;5031840;28;20293;-73
2023/09/25 13:43:46;;;;;;;6.57;2.65;;;;;;;;;;5031752;28;20022;-73
2023/09/25 13:46:13;;;;;;;6.75;2.53;;;;;;;;;;5010021;28;20418;-75
2023/09/25 13:48:39;;;;;;;4.05;1.88;;;;;;;;;;5011587;28;20030;-73
2023/09/25 13:51:06;;;;;;;8.43;3.92;;;;;;;;;;5014190;28;20112;-75
2023/09/25 13:53:35;;;;;;;4.50;2.70;;;;;;;;;;5004734;28;20022;-77
2023/09/25 13:56:02;;;;;;;7.72;3.47;;;;;;;;;;4993441;28;20053;-77
2023/09/25 13:58:28;;;;;;;3.65;2.20;;;;;;;;;;4992545;28;20543;-77
2023/09/25 14:00:54;;;;;;;9.07;2.33;;;;;;;;;;4993504;28;20080;-76
2023/09/25 14:03:21;;;;;;;4.93;2.13;;;;;;;;;;4992841;28;20045;-75
2023/09/25 14:05:47;;;;;;;7.03;2.05;;;;;;;;;;5002986;28;20036;-76
2023/09/25 14:08:13;;;;;;;4.03;2.20;;;;;;;;;;5001554;28;20018;-75
2023/09/25 14:10:39;;;;;;;7.78;2.55;;;;;;;;;;5010889;28;20322;-76
2023/09/25 14:13:06;;;;;;;7.82;2.15;;;;;;;;;;5012229;28;20045;-76
2023/09/25 14:15:32;;;;;;;7.95;1.98;;;;;;;;;;5011717;28;20028;-75
2023/09/25 14:17:59;;;;;;;5.78;2.40;;;;;;;;;;5011660;28;20038;-75
2023/09/25 14:20:25;;;;;;;2.75;1.88;;;;;;;;;;5011484;28;20030;-77
2023/09/25 14:22:51;;;;;;;6.22;2.70;;;;;;;;;;5010744;28;20026;-75
2023/09/25 14:25:17;;;;;;;5.95;2.55;;;;;;;;;;5011290;28;20022;-75
2023/09/25 14:27:43;;;;;;;5.10;2.25;;;;;;;;;;5011151;28;20392;-76
2023/09/25 14:30:12;;;;;;;9.98;3.05;;;;;;;;;;5011517;28;20030;-75
2023/09/25 14:32:38;;;;;;;6.95;3.05;;;;;;;;;;5011875;28;20022;-73
2023/09/25 14:35:04;;;;;;;5.95;2.42;;;;;;;;;;5011168;28;20508;-74